Time,TemperatureF,DewpointF,PressureIn,WindDirection,WindDirectionDegrees,WindSpeedMPH,WindSpeedGustMPH,Humidity,HourlyPrecipIn,Conditions,Clouds,dailyrainin,SolarRadiationWatts/m^2,SoftwareType,DateUTC
2013-02-05 00:01:00,-999.0,-99.9,-100.00,North,-999,1.0,7.0,4,1.47,,,1.47,0.000000,,2013-02-05 05:01:00,
2013-02-05 00:32:00,-999.0,-99.9,-100.00,North,-999,1.0,7.0,4,1.47,,,1.47,0.000000,,2013-02-05 05:32:00,
2013-02-05 00:42:00,-999.0,-99.9,-100.00,North,-999,1.0,7.0,4,1.47,,,1.47,0.000000,,2013-02-05 05:42:00,
2013-02-05 00:52:00,-999.0,-99.9,-100.00,North,-999,1.0,7.0,4,1.47,,,1.47,0.000000,,2013-02-05 05:52:00,
2013-02-05 01:01:00,16.0,12.0,-100.00,NE,47,0.0,2.0,85,-99.99,,,0.00,0.000000,,2013-02-05 06:01:00,
2013-02-05 01:32:00,16.0,12.0,-100.00,NE,47,0.0,2.0,85,-99.99,,,0.00,0.000000,,2013-02-05 06:32:00,
2013-02-05 01:42:00,16.0,12.0,-100.00,NE,47,0.0,2.0,85,-99.99,,,0.00,0.000000,,2013-02-05 06:42:00,
2013-02-05 01:52:00,16.0,12.0,-100.00,NE,47,0.0,2.0,85,-99.99,,,0.00,0.000000,,2013-02-05 06:52:00,
2013-02-05 02:01:00,15.0,11.0,-100.00,NW,313,1.0,1.0,85,0.00,,,0.00,0.000000,,2013-02-05 07:01:00,
2013-02-05 02:32:00,15.0,11.0,-100.00,NW,313,1.0,1.0,85,0.00,,,0.00,0.000000,,2013-02-05 07:32:00,
2013-02-05 02:42:00,15.0,11.0,-100.00,NW,313,1.0,1.0,85,0.00,,,0.00,0.000000,,2013-02-05 07:42:00,
2013-02-05 02:52:00,15.0,11.0,-100.00,NW,313,1.0,1.0,85,0.00,,,0.00,0.000000,,2013-02-05 07:52:00,
2013-02-05 03:01:00,13.0,9.0,-100.00,NW,313,1.0,4.0,85,0.00,,,0.00,0.000000,,2013-02-05 08:01:00,
2013-02-05 03:22:00,13.0,9.0,-100.00,NW,313,1.0,4.0,85,0.00,,,0.00,0.000000,,2013-02-05 08:22:00,
2013-02-05 03:32:00,13.0,9.0,-100.00,NW,313,1.0,4.0,85,0.00,,,0.00,0.000000,,2013-02-05 08:32:00,
2013-02-05 03:42:00,13.0,9.0,-100.00,NW,313,1.0,4.0,85,0.00,,,0.00,0.000000,,2013-02-05 08:42:00,
2013-02-05 03:52:00,13.0,9.0,-100.00,NW,313,1.0,4.0,85,0.00,,,0.00,0.000000,,2013-02-05 08:52:00,
2013-02-05 04:22:00,1.0,-99.9,-100.00,SE,138,-999.0,-999.0,-999,-99.99,,,-99.99,,,2013-02-05 09:22:00,
2013-02-05 04:32:00,1.0,-99.9,-100.00,SE,138,-999.0,-999.0,-999,-99.99,,,-99.99,,,2013-02-05 09:32:00,
2013-02-05 05:32:00,1.0,-54.0,-100.00,North,4,0.0,2.0,5,-99.99,,,56.68,0.000000,,2013-02-05 10:32:00,
2013-02-05 06:01:00,3.0,0.0,-100.00,SSE,154,1.0,2.0,85,-99.99,,,0.00,0.000000,,2013-02-05 11:01:00,
2013-02-05 06:32:00,3.0,0.0,-100.00,SSE,154,1.0,2.0,85,-99.99,,,0.00,0.000000,,2013-02-05 11:32:00,
2013-02-05 06:42:00,3.0,0.0,-100.00,SSE,154,1.0,2.0,85,-99.99,,,0.00,0.000000,,2013-02-05 11:42:00,
2013-02-05 06:52:00,3.0,0.0,-100.00,SSE,154,1.0,2.0,85,-99.99,,,0.00,0.000000,,2013-02-05 11:52:00,
2013-02-05 09:01:00,7.0,3.0,-100.00,SSE,157,3.0,3.0,85,-99.99,,,0.00,71.000000,,2013-02-05 14:01:00,
2013-02-05 09:32:00,7.0,3.0,-100.00,SSE,157,3.0,3.0,85,-99.99,,,0.00,71.000000,,2013-02-05 14:32:00,
2013-02-05 09:42:00,7.0,3.0,-100.00,SSE,157,3.0,3.0,85,-99.99,,,0.00,71.000000,,2013-02-05 14:42:00,
2013-02-05 09:52:00,7.0,3.0,-100.00,SSE,157,3.0,3.0,85,-99.99,,,0.00,71.000000,,2013-02-05 14:52:00,
2013-02-05 10:01:00,16.0,12.0,-100.00,South,175,4.0,7.0,85,0.00,,,0.00,102.000000,,2013-02-05 15:01:00,
2013-02-05 10:32:00,16.0,12.0,-100.00,South,175,4.0,7.0,85,0.00,,,0.00,102.000000,,2013-02-05 15:32:00,
2013-02-05 10:42:00,16.0,12.0,-100.00,South,175,4.0,7.0,85,0.00,,,0.00,102.000000,,2013-02-05 15:42:00,
2013-02-05 10:52:00,16.0,12.0,-100.00,South,175,4.0,7.0,85,0.00,,,0.00,102.000000,,2013-02-05 15:52:00,
2013-02-05 11:01:00,19.0,15.0,-100.00,SSE,168,7.0,14.0,85,0.00,,,-99.99,139.000000,,2013-02-05 16:01:00,
2013-02-05 11:33:00,19.0,15.0,-100.00,SSE,168,7.0,14.0,85,0.00,,,-99.99,139.000000,,2013-02-05 16:33:00,
2013-02-05 11:42:00,19.0,15.0,-100.00,SSE,168,7.0,14.0,85,0.00,,,-99.99,139.000000,,2013-02-05 16:42:00,
2013-02-05 11:52:00,19.0,15.0,-100.00,SSE,168,7.0,14.0,85,0.00,,,-99.99,139.000000,,2013-02-05 16:52:00,
2013-02-05 12:01:00,22.0,18.0,-100.00,SSW,192,9.0,15.0,85,0.00,,,-99.99,340.000000,,2013-02-05 17:01:00,
2013-02-05 12:33:00,22.0,18.0,-100.00,SSW,192,9.0,15.0,85,0.00,,,-99.99,340.000000,,2013-02-05 17:33:00,
2013-02-05 12:42:00,22.0,18.0,-100.00,SSW,192,9.0,15.0,85,0.00,,,-99.99,340.000000,,2013-02-05 17:42:00,
2013-02-05 12:52:00,22.0,18.0,-100.00,SSW,192,9.0,15.0,85,0.00,,,-99.99,340.000000,,2013-02-05 17:52:00,
2013-02-05 13:01:00,23.0,19.0,-100.00,SSW,206,9.0,17.0,85,0.00,,,0.00,291.000000,,2013-02-05 18:01:00,
2013-02-05 13:32:00,23.0,19.0,-100.00,SSW,206,9.0,17.0,85,0.00,,,0.00,291.000000,,2013-02-05 18:32:00,
2013-02-05 13:42:00,23.0,19.0,-100.00,SSW,206,9.0,17.0,85,0.00,,,0.00,291.000000,,2013-02-05 18:42:00,
2013-02-05 13:52:00,23.0,19.0,-100.00,SSW,206,9.0,17.0,85,0.00,,,0.00,291.000000,,2013-02-05 18:52:00,
2013-02-05 14:01:00,24.0,20.0,-100.00,SSW,208,8.0,17.0,84,0.00,,,0.00,208.000000,,2013-02-05 19:01:00,
2013-02-05 14:32:00,24.0,20.0,-100.00,SSW,208,8.0,17.0,84,0.00,,,0.00,208.000000,,2013-02-05 19:32:00,
2013-02-05 14:42:00,24.0,20.0,-100.00,SSW,208,8.0,17.0,84,0.00,,,0.00,208.000000,,2013-02-05 19:42:00,
2013-02-05 14:52:00,24.0,20.0,-100.00,SSW,208,8.0,17.0,84,0.00,,,0.00,208.000000,,2013-02-05 19:52:00,
2013-02-05 15:01:00,24.0,20.0,-100.00,SSW,197,7.0,15.0,84,0.00,,,0.00,114.000000,,2013-02-05 20:01:00,
2013-02-05 15:32:00,24.0,20.0,-100.00,SSW,197,7.0,15.0,84,0.00,,,0.00,114.000000,,2013-02-05 20:32:00,
2013-02-05 15:42:00,24.0,20.0,-100.00,SSW,197,7.0,15.0,84,0.00,,,0.00,114.000000,,2013-02-05 20:42:00,
2013-02-05 15:52:00,24.0,20.0,-100.00,SSW,197,7.0,15.0,84,0.00,,,0.00,114.000000,,2013-02-05 20:52:00,
2013-02-05 16:01:00,24.0,20.0,-100.00,SSW,196,8.0,17.0,84,0.00,,,0.00,111.000000,,2013-02-05 21:01:00,
2013-02-05 16:22:00,24.0,20.0,-100.00,SSW,196,8.0,17.0,84,0.00,,,0.00,111.000000,,2013-02-05 21:22:00,
2013-02-05 16:32:00,24.0,20.0,-100.00,SSW,196,8.0,17.0,84,0.00,,,0.00,111.000000,,2013-02-05 21:32:00,
2013-02-05 16:42:00,24.0,20.0,-100.00,SSW,196,8.0,17.0,84,0.00,,,0.00,111.000000,,2013-02-05 21:42:00,
2013-02-05 16:52:00,24.0,20.0,-100.00,SSW,196,8.0,17.0,84,0.00,,,0.00,111.000000,,2013-02-05 21:52:00,
2013-02-05 17:01:00,23.0,19.0,-100.00,SSW,194,6.0,15.0,84,0.00,,,0.00,51.000000,,2013-02-05 22:01:00,
2013-02-05 17:22:00,23.0,19.0,-100.00,SSW,194,6.0,15.0,84,0.00,,,0.00,51.000000,,2013-02-05 22:22:00,
2013-02-05 17:32:00,23.0,19.0,-100.00,SSW,194,6.0,15.0,84,0.00,,,0.00,51.000000,,2013-02-05 22:32:00,
2013-02-05 17:42:00,23.0,19.0,-100.00,SSW,194,6.0,15.0,84,0.00,,,0.00,51.000000,,2013-02-05 22:42:00,
2013-02-05 17:52:00,23.0,19.0,-100.00,SSW,194,6.0,15.0,84,0.00,,,0.00,51.000000,,2013-02-05 22:52:00,
2013-02-05 18:01:00,24.0,20.0,-100.00,SSW,209,8.0,13.0,84,0.00,,,0.00,19.000000,,2013-02-05 23:01:00,
2013-02-05 18:22:00,24.0,20.0,-100.00,SSW,209,8.0,13.0,84,0.00,,,0.00,19.000000,,2013-02-05 23:22:00,
2013-02-05 18:33:00,24.0,20.0,-100.00,SSW,209,8.0,13.0,84,0.00,,,0.00,19.000000,,2013-02-05 23:33:00,
2013-02-05 18:42:00,24.0,20.0,-100.00,SSW,209,8.0,13.0,84,0.00,,,0.00,19.000000,,2013-02-05 23:42:00,
2013-02-05 18:53:00,24.0,20.0,-100.00,SSW,209,8.0,13.0,84,0.00,,,0.00,19.000000,,2013-02-05 23:53:00,
2013-02-05 19:01:00,24.0,20.0,-100.00,SW,216,5.0,13.0,84,0.00,,,0.00,0.000000,,2013-02-06 00:01:00,
2013-02-05 19:32:00,24.0,20.0,-100.00,SW,216,5.0,13.0,84,0.00,,,0.00,0.000000,,2013-02-06 00:32:00,
2013-02-05 19:42:00,24.0,20.0,-100.00,SW,216,5.0,13.0,84,0.00,,,0.00,0.000000,,2013-02-06 00:42:00,
2013-02-05 19:52:00,24.0,20.0,-100.00,SW,216,5.0,13.0,84,0.00,,,0.00,0.000000,,2013-02-06 00:52:00,
2013-02-05 20:01:00,24.0,20.0,-100.00,SW,225,4.0,13.0,84,0.00,,,0.00,0.000000,,2013-02-06 01:01:00,
2013-02-05 20:33:00,24.0,20.0,-100.00,SW,225,4.0,13.0,84,0.00,,,0.00,0.000000,,2013-02-06 01:33:00,
2013-02-05 20:42:00,24.0,20.0,-100.00,SW,225,4.0,13.0,84,0.00,,,0.00,0.000000,,2013-02-06 01:42:00,
2013-02-05 20:53:00,24.0,20.0,-100.00,SW,225,4.0,13.0,84,0.00,,,0.00,0.000000,,2013-02-06 01:53:00,
2013-02-05 21:01:00,25.0,21.0,-100.00,WSW,248,3.0,10.0,84,0.00,,,0.00,0.000000,,2013-02-06 02:01:00,
2013-02-05 21:32:00,25.0,21.0,-100.00,WSW,248,3.0,10.0,84,0.00,,,0.00,0.000000,,2013-02-06 02:32:00,
2013-02-05 21:42:00,25.0,21.0,-100.00,WSW,248,3.0,10.0,84,0.00,,,0.00,0.000000,,2013-02-06 02:42:00,
2013-02-05 21:53:00,25.0,21.0,-100.00,WSW,248,3.0,10.0,84,0.00,,,0.00,0.000000,,2013-02-06 02:53:00,
2013-02-05 22:01:00,26.0,22.0,-100.00,NW,306,7.0,18.0,84,0.00,,,0.22,0.000000,,2013-02-06 03:01:00,
2013-02-05 22:33:00,26.0,22.0,-100.00,NW,306,7.0,18.0,84,0.00,,,0.22,0.000000,,2013-02-06 03:33:00,
2013-02-05 22:42:00,26.0,22.0,-100.00,NW,306,7.0,18.0,84,0.00,,,0.22,0.000000,,2013-02-06 03:42:00,
2013-02-05 22:53:00,26.0,22.0,-100.00,NW,306,7.0,18.0,84,0.00,,,0.22,0.000000,,2013-02-06 03:53:00,
2013-02-05 23:01:00,25.0,21.0,-100.00,NNW,332,9.0,19.0,84,0.00,,,0.00,0.000000,,2013-02-06 04:01:00,
2013-02-05 23:32:00,25.0,21.0,-100.00,NNW,332,9.0,19.0,84,0.00,,,0.00,0.000000,,2013-02-06 04:32:00,
2013-02-05 23:42:00,25.0,21.0,-100.00,NNW,332,9.0,19.0,84,0.00,,,0.00,0.000000,,2013-02-06 04:42:00,
2013-02-05 23:52:00,25.0,21.0,-100.00,NNW,332,9.0,19.0,84,0.00,,,0.00,0.000000,,2013-02-06 04:52:00,